createdAt,value
2017-10-09T00:03:51.699Z,1.83
2017-10-09T00:11:26.162Z,2.33
2017-10-09T00:13:54.426Z,2.12
2017-10-09T00:21:28.819Z,1.60
2017-10-09T00:36:41.794Z,1.05
2017-10-09T00:51:54.699Z,1.95
2017-10-09T00:56:55.184Z,1.98
2017-10-09T01:01:55.537Z,2.28
2017-10-09T01:09:28.756Z,2.00
2017-10-09T01:11:56.276Z,1.75
2017-10-09T01:19:31.119Z,2.20
2017-10-09T01:24:33.067Z,1.90
2017-10-09T01:27:00.587Z,1.90
2017-10-09T01:37:07.024Z,2.60
2017-10-09T01:42:07.480Z,2.55
2017-10-09T01:44:34.980Z,2.92
2017-10-09T01:49:35.270Z,3.33
2017-10-09T01:52:02.789Z,2.87
2017-10-09T02:16:52.402Z,2.80
2017-10-09T02:19:20.057Z,2.40
2017-10-09T02:21:47.583Z,2.30
2017-10-09T02:29:20.798Z,2.58
2017-10-09T02:31:49.108Z,3.80
2017-10-09T02:36:49.572Z,3.10
2017-10-09T02:41:49.951Z,3.08
2017-10-09T02:49:24.841Z,2.70
2017-10-09T02:51:53.096Z,4.03
2017-10-09T02:54:21.366Z,3.53
2017-10-09T03:01:55.437Z,2.60
2017-10-09T03:04:23.708Z,4.65
2017-10-09T03:06:51.975Z,3.25
2017-10-09T03:09:20.270Z,3.60
2017-10-09T03:14:20.835Z,3.45
2017-10-09T03:24:37.963Z,2.70
2017-10-09T03:27:06.883Z,5.43
2017-10-09T03:34:47.483Z,3.47
2017-10-09T03:37:15.750Z,3.40
2017-10-09T03:39:44.018Z,3.47
2017-10-09T03:44:45.235Z,3.55
2017-10-09T03:52:18.723Z,3.62
2017-10-09T03:54:46.998Z,3.87
2017-10-09T03:57:15.260Z,3.95
2017-10-09T03:59:44.465Z,4.05
2017-10-09T04:02:11.980Z,4.07
2017-10-09T04:09:45.330Z,3.40
2017-10-09T04:12:12.837Z,4.22
2017-10-09T04:22:19.055Z,3.90
2017-10-09T04:24:46.575Z,3.95
2017-10-09T04:27:14.099Z,3.80
2017-10-09T04:29:41.608Z,3.12
2017-10-09T04:39:48.608Z,4.65
2017-10-09T04:44:50.641Z,4.50
2017-10-09T04:52:24.609Z,3.90
2017-10-09T04:54:52.109Z,3.87
2017-10-09T04:57:19.598Z,3.05
2017-10-09T04:59:48.172Z,2.97
2017-10-09T05:04:48.501Z,3.45
2017-10-09T05:07:16.010Z,3.95
2017-10-09T05:14:49.229Z,3.58
2017-10-09T05:22:22.607Z,4.40
2017-10-09T05:24:50.191Z,4.55
2017-10-09T05:34:56.576Z,5.53
2017-10-09T05:39:56.928Z,3.95
2017-10-09T05:42:24.492Z,4.35
2017-10-09T05:47:25.581Z,4.15
2017-10-09T05:57:31.682Z,5.55
2017-10-09T06:02:32.174Z,5.20
2017-10-09T06:10:05.451Z,4.75
2017-10-09T06:12:32.976Z,6.60
2017-10-09T06:17:33.482Z,5.32
2017-10-09T06:27:40.431Z,5.05
2017-10-09T06:37:47.603Z,4.80
2017-10-09T06:47:53.695Z,6.25
2017-10-09T06:52:54.033Z,3.70
2017-10-09T06:57:55.711Z,4.80
2017-10-09T07:08:02.010Z,6.30
2017-10-09T07:10:29.524Z,6.15
2017-10-09T07:12:57.022Z,4.90
2017-10-09T07:15:25.326Z,4.18
2017-10-09T07:25:31.832Z,4.50
2017-10-09T07:27:59.392Z,4.57
2017-10-09T07:30:26.905Z,4.85
2017-10-09T07:38:01.090Z,2.80
2017-10-09T07:43:01.588Z,4.12
2017-10-09T07:45:29.106Z,2.50
2017-10-09T07:47:56.759Z,4.32
2017-10-09T07:52:57.366Z,3.10
2017-10-09T08:03:03.542Z,4.68
2017-10-09T08:13:09.790Z,4.68
2017-10-09T08:15:37.304Z,5.20
2017-10-09T08:20:38.471Z,4.30
2017-10-09T08:23:05.964Z,2.97
2017-10-09T08:25:33.491Z,4.07
2017-10-09T08:28:01.008Z,4.72
2017-10-09T08:38:07.303Z,3.97
2017-10-09T08:53:19.331Z,7.07
2017-10-09T08:55:46.833Z,6.22
2017-10-09T09:08:26.115Z,5.40
2017-10-09T09:13:26.535Z,4.82
2017-10-09T09:23:33.803Z,5.07
2017-10-09T09:26:01.336Z,3.80
2017-10-09T09:31:01.760Z,5.12
2017-10-09T09:36:02.147Z,5.35
2017-10-09T09:38:29.721Z,5.00
2017-10-09T09:46:03.048Z,3.37
2017-10-09T09:48:30.583Z,3.85
2017-10-09T09:50:58.105Z,4.12
2017-10-09T09:55:59.411Z,3.30
2017-10-09T10:03:34.270Z,3.42
2017-10-09T10:16:15.723Z,2.10
2017-10-09T10:21:16.996Z,2.00
2017-10-09T10:23:44.510Z,1.62
2017-10-09T10:26:12.030Z,1.87
2017-10-09T10:31:13.258Z,2.00
2017-10-09T10:33:40.776Z,1.40
2017-10-09T10:36:08.299Z,1.50
2017-10-09T10:38:35.832Z,1.27
2017-10-09T10:41:03.360Z,1.30
2017-10-09T10:48:36.821Z,1.40
2017-10-09T10:58:43.548Z,1.98
2017-10-09T11:01:11.060Z,1.33
2017-10-09T11:03:38.570Z,1.50
2017-10-09T11:08:39.637Z,1.20
2017-10-09T11:11:08.728Z,1.00
2017-10-09T11:21:16.659Z,1.08
2017-10-09T11:31:23.991Z,1.90
2017-10-09T11:33:51.490Z,1.00
2017-10-09T11:36:19.031Z,1.00
2017-10-09T11:38:46.620Z,1.00
2017-10-09T11:41:14.914Z,1.17
2017-10-09T11:51:21.960Z,0.90
2017-10-09T11:53:49.515Z,1.37
2017-10-09T11:58:49.964Z,1.70
2017-10-09T12:01:17.807Z,1.10
2017-10-09T12:13:57.347Z,1.10
2017-10-09T12:18:57.716Z,1.10
2017-10-09T12:21:25.211Z,1.10
2017-10-09T12:23:53.502Z,1.10
2017-10-09T12:26:21.043Z,1.30
2017-10-09T12:28:49.316Z,0.90
2017-10-09T12:36:22.847Z,1.65
2017-10-09T12:38:50.365Z,1.25
2017-10-09T12:41:17.861Z,0.90
2017-10-09T12:43:45.376Z,0.90
2017-10-09T12:46:12.886Z,1.10
2017-10-09T12:53:46.655Z,2.40
2017-10-09T12:58:47.095Z,0.80
2017-10-09T13:03:47.470Z,1.10
2017-10-09T13:06:14.976Z,1.12
2017-10-09T13:08:42.532Z,0.90
2017-10-09T13:13:42.996Z,0.90
2017-10-09T13:16:10.563Z,0.80
2017-10-09T13:18:38.352Z,1.15
2017-10-09T13:26:12.686Z,1.23
2017-10-09T13:31:13.055Z,1.33
2017-10-09T13:33:40.608Z,1.50
2017-10-09T13:36:08.157Z,1.40
2017-10-09T13:38:35.664Z,1.50
2017-10-09T13:43:36.084Z,1.98
2017-10-09T13:46:03.612Z,2.10
2017-10-09T13:48:31.108Z,2.00
2017-10-09T13:50:58.687Z,1.70
2017-10-09T13:53:26.196Z,1.90
2017-10-09T14:00:59.497Z,1.90
2017-10-09T14:06:00.902Z,1.70
2017-10-09T14:11:01.454Z,1.65
2017-10-09T14:23:40.104Z,3.15
2017-10-09T14:26:07.632Z,2.90
2017-10-09T14:28:35.336Z,3.17
2017-10-09T14:31:03.623Z,3.75
2017-10-09T14:40:53.776Z,3.53
2017-10-09T14:43:21.300Z,3.80
2017-10-09T14:45:49.554Z,3.83
2017-10-09T14:48:17.074Z,10.80
2017-10-09T14:50:44.603Z,4.68
2017-10-09T14:53:12.109Z,4.05
2017-10-09T14:55:39.657Z,3.83
2017-10-09T14:58:07.184Z,4.00
2017-10-09T15:00:34.697Z,3.10
2017-10-09T15:03:02.507Z,1.98
2017-10-09T15:05:30.057Z,2.17
2017-10-09T15:07:57.611Z,1.75
2017-10-09T15:10:25.301Z,2.10
2017-10-09T15:12:52.814Z,2.00
2017-10-09T15:15:20.368Z,2.95
2017-10-09T15:17:47.870Z,2.15
2017-10-09T15:20:15.380Z,2.92
2017-10-09T15:22:42.903Z,2.20
2017-10-09T15:25:10.413Z,2.80
2017-10-09T15:27:37.917Z,2.30
2017-10-09T15:30:05.439Z,1.80
2017-10-09T15:32:32.956Z,2.10
2017-10-09T15:35:00.490Z,2.20
2017-10-09T15:37:28.009Z,1.90
2017-10-09T15:39:55.604Z,1.80
2017-10-09T15:42:23.120Z,3.03
2017-10-09T15:44:50.639Z,2.30
2017-10-09T15:47:18.210Z,2.85
2017-10-09T15:49:45.707Z,2.30
2017-10-09T15:52:13.250Z,2.57
2017-10-09T15:54:40.812Z,3.00
2017-10-09T15:57:08.329Z,3.10
2017-10-09T15:59:35.845Z,3.47
2017-10-09T16:02:03.373Z,3.50
2017-10-09T16:04:31.705Z,3.30
2017-10-09T16:06:59.979Z,2.53
2017-10-09T16:09:27.605Z,3.58
2017-10-09T16:11:55.153Z,3.40
2017-10-09T16:14:22.691Z,2.60
2017-10-09T16:16:50.200Z,4.00
2017-10-09T16:19:17.725Z,5.85
2017-10-09T16:21:45.249Z,2.47
2017-10-09T16:24:12.817Z,2.80
2017-10-09T16:26:41.087Z,3.28
2017-10-09T16:29:09.444Z,2.30
2017-10-09T16:31:36.982Z,2.30
2017-10-09T16:34:04.509Z,2.57
2017-10-09T16:36:32.036Z,2.30
2017-10-09T16:38:59.614Z,2.10
2017-10-09T16:41:27.889Z,1.90
2017-10-09T16:43:56.147Z,2.05
2017-10-09T16:46:24.500Z,1.95
2017-10-09T16:48:52.023Z,2.00
2017-10-09T16:51:19.560Z,2.53
2017-10-09T16:53:47.963Z,2.67
2017-10-09T16:56:15.493Z,2.00
2017-10-09T16:58:43.767Z,2.30
2017-10-09T17:01:12.164Z,2.20
2017-10-09T17:03:39.704Z,2.70
2017-10-09T17:06:07.979Z,2.30
2017-10-09T17:08:36.287Z,2.40
2017-10-09T17:11:03.800Z,2.12
2017-10-09T17:13:31.355Z,2.27
2017-10-09T17:15:58.949Z,2.50
2017-10-09T17:18:26.529Z,2.47
2017-10-09T17:20:54.044Z,2.37
2017-10-09T17:23:21.557Z,2.55
2017-10-09T17:25:49.390Z,2.40
2017-10-09T17:28:16.952Z,2.50
2017-10-09T17:30:47.220Z,2.90
2017-10-09T17:33:14.752Z,3.10
2017-10-09T17:35:42.280Z,3.30
2017-10-09T17:38:09.816Z,3.00
2017-10-09T17:40:37.375Z,2.97
2017-10-09T17:43:04.932Z,2.70
2017-10-09T17:45:32.454Z,2.70
2017-10-09T17:47:59.979Z,4.53
2017-10-09T17:50:27.525Z,6.30
2017-10-09T17:52:55.098Z,3.05
2017-10-09T17:55:23.672Z,3.42
2017-10-09T17:57:51.216Z,3.70
2017-10-09T18:00:18.732Z,3.70
2017-10-09T18:02:46.240Z,3.10
2017-10-09T18:05:13.795Z,3.40
2017-10-09T18:07:41.328Z,3.12
2017-10-09T18:10:08.885Z,5.15
2017-10-09T18:12:36.393Z,3.10
2017-10-09T18:15:03.929Z,3.45
2017-10-09T18:17:31.642Z,3.17
2017-10-09T18:20:00.006Z,3.40
2017-10-09T18:22:27.581Z,3.90
2017-10-09T18:24:55.243Z,4.00
2017-10-09T18:27:23.521Z,3.35
2017-10-09T18:29:51.839Z,4.03
2017-10-09T18:32:19.364Z,3.30
2017-10-09T18:34:46.907Z,3.05
2017-10-09T18:37:15.211Z,3.10
2017-10-09T18:39:42.746Z,3.30
2017-10-09T18:42:11.039Z,3.70
2017-10-09T18:44:38.678Z,5.47
2017-10-09T18:47:06.971Z,3.47
2017-10-09T18:49:35.253Z,4.05
2017-10-09T18:52:02.899Z,3.03
2017-10-09T18:54:30.449Z,4.00
2017-10-09T18:56:58.813Z,3.72
2017-10-09T18:59:26.344Z,4.03
2017-10-09T19:01:53.939Z,4.10
2017-10-09T19:04:21.493Z,3.85
2017-10-09T19:06:49.049Z,4.00
2017-10-09T19:09:16.592Z,3.22
2017-10-09T19:11:44.151Z,3.62
2017-10-09T19:14:11.658Z,3.00
2017-10-09T19:16:39.232Z,3.50
2017-10-09T19:19:07.607Z,3.42
2017-10-09T19:21:35.113Z,3.37
2017-10-09T19:24:02.637Z,3.30
2017-10-09T19:26:30.139Z,4.00
2017-10-09T19:28:57.636Z,3.40
2017-10-09T19:31:25.200Z,3.70
2017-10-09T19:33:53.506Z,3.70
2017-10-09T19:36:21.040Z,3.70
2017-10-09T19:38:48.594Z,3.42
2017-10-09T19:41:16.874Z,3.37
2017-10-09T19:43:45.188Z,4.22
2017-10-09T19:46:12.748Z,3.35
2017-10-09T19:48:40.404Z,3.60
2017-10-09T19:51:07.935Z,3.60
2017-10-09T19:53:36.265Z,3.70
2017-10-09T19:56:03.804Z,3.35
2017-10-09T19:58:31.303Z,4.43
2017-10-09T20:00:59.141Z,9.40
2017-10-09T20:03:26.687Z,4.18
2017-10-09T20:05:54.306Z,3.58
2017-10-09T20:08:22.587Z,3.83
2017-10-09T20:10:50.880Z,3.90
2017-10-09T20:13:19.166Z,5.03
2017-10-09T20:15:46.700Z,6.10
2017-10-09T20:18:14.223Z,4.45
2017-10-09T20:20:41.744Z,4.10
2017-10-09T20:23:09.249Z,3.70
2017-10-09T20:25:36.858Z,3.80
2017-10-09T20:28:05.132Z,4.15
2017-10-09T20:30:33.422Z,3.15
2017-10-09T20:33:01.053Z,4.00
2017-10-09T20:35:29.364Z,3.90
2017-10-09T20:37:56.901Z,4.70
2017-10-09T20:40:24.461Z,3.60
2017-10-09T20:42:52.801Z,3.95
2017-10-09T20:45:20.348Z,4.20
2017-10-09T20:47:47.994Z,4.60
2017-10-09T20:50:15.516Z,4.20
2017-10-09T20:52:43.819Z,4.37
2017-10-09T20:55:11.320Z,3.95
2017-10-09T20:57:38.836Z,3.87
2017-10-09T21:00:06.350Z,3.58
2017-10-09T21:02:33.846Z,4.40
2017-10-09T21:05:02.126Z,3.80
2017-10-09T21:07:30.400Z,3.78
2017-10-09T21:09:57.916Z,3.80
2017-10-09T21:12:25.437Z,3.90
2017-10-09T21:14:52.937Z,3.72
2017-10-09T21:17:20.457Z,3.80
2017-10-09T21:19:47.978Z,9.75
2017-10-09T21:22:15.494Z,7.72
2017-10-09T21:24:43.324Z,4.05
2017-10-09T21:27:10.854Z,3.30
2017-10-09T21:29:38.665Z,3.80
2017-10-09T21:32:06.201Z,3.83
2017-10-09T21:34:34.480Z,3.55
2017-10-09T21:37:03.066Z,4.32
2017-10-09T21:39:30.584Z,4.60
2017-10-09T21:41:58.084Z,4.62
2017-10-09T21:44:26.362Z,4.62
2017-10-09T21:46:54.666Z,5.22
2017-10-09T21:49:22.216Z,3.90
2017-10-09T21:51:49.714Z,5.30
2017-10-09T21:54:17.213Z,4.70
2017-10-09T21:56:45.508Z,5.03
2017-10-09T21:59:13.012Z,5.82
2017-10-09T22:01:40.561Z,5.65
2017-10-09T22:04:08.882Z,5.10
2017-10-09T22:06:37.248Z,4.70
2017-10-09T22:09:04.759Z,5.00
2017-10-09T22:11:32.256Z,4.60
2017-10-09T22:13:59.748Z,5.22
2017-10-09T22:16:28.024Z,4.80
2017-10-09T22:18:56.317Z,5.00
2017-10-09T22:21:23.829Z,5.40
2017-10-09T22:23:51.319Z,5.47
2017-10-09T22:26:19.652Z,5.35
2017-10-09T22:28:47.921Z,6.00
2017-10-09T22:31:15.434Z,6.57
2017-10-09T22:33:43.706Z,6.40
2017-10-09T22:36:11.975Z,7.37
2017-10-09T22:38:40.246Z,8.13
2017-10-09T22:41:08.524Z,8.38
2017-10-09T22:43:36.041Z,8.70
2017-10-09T22:46:03.564Z,9.15
2017-10-09T22:48:31.080Z,9.13
2017-10-09T22:50:58.596Z,10.20
2017-10-09T22:53:26.100Z,9.65
2017-10-09T22:55:53.681Z,9.40
2017-10-09T22:58:21.955Z,9.80
2017-10-09T23:00:50.379Z,10.05
2017-10-09T23:03:17.901Z,10.32
2017-10-09T23:05:46.180Z,10.40
2017-10-09T23:08:14.456Z,10.63
2017-10-09T23:10:42.748Z,11.32
2017-10-09T23:13:11.027Z,10.97
2017-10-09T23:15:38.545Z,11.20
2017-10-09T23:18:06.048Z,11.95
2017-10-09T23:20:33.614Z,13.23
2017-10-09T23:23:01.174Z,11.77
2017-10-09T23:25:28.687Z,11.50
2017-10-09T23:27:56.215Z,12.23
2017-10-09T23:30:23.746Z,12.02
2017-10-09T23:32:51.258Z,13.40
2017-10-09T23:35:19.016Z,12.40
2017-10-09T23:37:46.542Z,11.85
2017-10-09T23:40:14.066Z,12.85
2017-10-09T23:42:41.580Z,11.60
2017-10-09T23:45:09.095Z,11.60
2017-10-09T23:47:36.611Z,12.95
2017-10-09T23:50:04.130Z,13.20
2017-10-09T23:52:31.648Z,13.50
2017-10-09T23:54:59.165Z,13.30
2017-10-09T23:57:26.704Z,13.70
2017-10-09T23:59:54.222Z,15.10
